createdAt,value
2018-09-08T00:02:05.170Z,20.23
2018-09-08T00:04:33.860Z,21.57
2018-09-08T00:07:08.031Z,20.17
2018-09-08T00:09:36.652Z,21.43
2018-09-08T00:12:05.457Z,21.83
2018-09-08T00:14:33.278Z,22.60
2018-09-08T00:17:07.252Z,21.20
2018-09-08T00:19:40.996Z,21.53
2018-09-08T00:22:14.987Z,21.10
2018-09-08T00:24:48.986Z,21.40
2018-09-08T00:27:21.858Z,20.47
2018-09-08T00:29:51.625Z,21.83
2018-09-08T00:32:22.062Z,21.53
2018-09-08T00:34:50.683Z,22.97
2018-09-08T00:37:19.364Z,22.90
2018-09-08T00:39:50.852Z,22.20
2018-09-08T00:42:19.857Z,23.00
2018-09-08T00:44:48.580Z,23.87
2018-09-08T00:47:18.798Z,23.53
2018-09-08T00:49:47.394Z,23.70
2018-09-08T00:52:16.013Z,25.50
2018-09-08T00:54:44.610Z,25.83
2018-09-08T00:57:13.338Z,27.30
2018-09-08T00:59:41.992Z,27.13
2018-09-08T01:02:10.588Z,26.17
2018-09-08T01:04:39.418Z,28.57
2018-09-08T01:07:14.037Z,24.73
2018-09-08T01:09:42.837Z,24.80
2018-09-08T01:12:11.720Z,25.23
2018-09-08T01:14:40.444Z,23.47
2018-09-08T01:17:09.058Z,24.23
2018-09-08T01:19:37.653Z,25.57
2018-09-08T01:22:06.992Z,24.73
2018-09-08T01:24:35.673Z,25.73
2018-09-08T01:27:04.392Z,26.23
2018-09-08T01:29:32.978Z,25.60
2018-09-08T01:32:01.596Z,26.13
2018-09-08T01:34:30.216Z,27.20
2018-09-08T01:36:58.812Z,25.77
2018-09-08T01:39:27.598Z,27.57
2018-09-08T01:41:56.400Z,29.07
2018-09-08T01:44:24.995Z,28.57
2018-09-08T01:46:53.897Z,28.23
2018-09-08T01:49:22.893Z,27.47
2018-09-08T01:51:51.621Z,29.23
2018-09-08T01:54:20.261Z,27.63
2018-09-08T01:56:48.944Z,28.30
2018-09-08T01:59:17.552Z,28.63
2018-09-08T02:01:46.250Z,26.70
2018-09-08T02:04:14.969Z,26.77
2018-09-08T02:06:43.596Z,26.23
2018-09-08T02:09:12.294Z,26.10
2018-09-08T02:11:41.035Z,26.93
2018-09-08T02:14:09.888Z,26.80
2018-09-08T02:16:38.580Z,28.10
2018-09-08T02:19:07.168Z,28.50
2018-09-08T02:21:35.854Z,28.80
2018-09-08T02:24:04.470Z,27.63
2018-09-08T02:26:33.066Z,28.90
2018-09-08T02:29:01.690Z,27.67
2018-09-08T02:31:30.334Z,27.90
2018-09-08T02:33:59.012Z,28.60
2018-09-08T02:36:27.624Z,29.30
2018-09-08T02:38:56.204Z,31.00
2018-09-08T02:41:24.921Z,29.83
2018-09-08T02:43:53.568Z,30.33
2018-09-08T02:46:22.169Z,30.13
2018-09-08T02:48:50.806Z,31.27
2018-09-08T02:51:18.264Z,31.17
2018-09-08T02:53:45.737Z,29.47
2018-09-08T02:56:13.180Z,30.53
2018-09-08T02:58:40.812Z,33.37
2018-09-08T03:01:08.264Z,34.17
2018-09-08T03:03:35.714Z,33.40
2018-09-08T03:06:03.209Z,35.53
2018-09-08T03:08:30.656Z,34.80
2018-09-08T03:10:58.100Z,34.00
2018-09-08T03:13:25.625Z,33.47
2018-09-08T03:15:53.285Z,34.63
2018-09-08T03:18:20.809Z,35.00
2018-09-08T03:20:48.253Z,34.37
2018-09-08T03:23:15.688Z,34.87
2018-09-08T03:25:43.317Z,35.73
2018-09-08T03:28:10.784Z,35.77
2018-09-08T03:30:38.276Z,35.37
2018-09-08T03:33:05.734Z,35.30
2018-09-08T03:35:33.173Z,35.17
2018-09-08T03:38:00.618Z,35.07
2018-09-08T03:40:28.065Z,35.80
2018-09-08T03:42:55.565Z,33.83
2018-09-08T03:45:23.005Z,34.67
2018-09-08T03:47:50.445Z,35.90
2018-09-08T03:50:17.887Z,36.43
2018-09-08T03:52:45.320Z,37.23
2018-09-08T03:55:12.818Z,37.07
2018-09-08T03:57:40.469Z,38.27
2018-09-08T04:00:07.912Z,36.10
2018-09-08T04:02:36.577Z,38.47
2018-09-08T04:05:05.219Z,37.80
2018-09-08T04:07:33.957Z,36.33
2018-09-08T04:10:02.652Z,37.20
2018-09-08T04:12:31.492Z,37.10
2018-09-08T04:15:00.092Z,36.47
2018-09-08T04:17:28.733Z,35.73
2018-09-08T04:19:57.333Z,35.33
2018-09-08T04:22:31.065Z,36.00
2018-09-08T04:24:59.775Z,37.83
2018-09-08T04:27:28.377Z,37.07
2018-09-08T04:29:56.969Z,37.07
2018-09-08T04:32:25.561Z,36.93
2018-09-08T04:34:54.165Z,33.50
2018-09-08T04:37:22.869Z,33.90
2018-09-08T04:39:51.452Z,34.80
2018-09-08T04:42:20.034Z,35.53
2018-09-08T04:44:48.617Z,38.03
2018-09-08T04:47:17.201Z,38.17
2018-09-08T04:49:45.816Z,35.30
2018-09-08T04:52:14.393Z,36.27
2018-09-08T04:54:42.989Z,36.90
2018-09-08T04:57:11.643Z,35.00
2018-09-08T04:59:40.272Z,37.27
2018-09-08T05:02:08.939Z,37.20
2018-09-08T05:04:37.530Z,35.23
2018-09-08T05:07:06.517Z,37.43
2018-09-08T05:09:35.515Z,37.23
2018-09-08T05:12:04.236Z,37.47
2018-09-08T05:14:32.864Z,38.30
2018-09-08T05:17:01.478Z,37.93
2018-09-08T05:19:30.073Z,39.97
2018-09-08T05:21:58.690Z,39.07
2018-09-08T05:24:27.285Z,41.50
2018-09-08T05:26:56.038Z,44.13
2018-09-08T05:29:24.768Z,42.97
2018-09-08T05:31:53.375Z,42.20
2018-09-08T05:34:22.457Z,45.07
2018-09-08T05:36:51.206Z,46.27
2018-09-08T05:39:19.836Z,46.87
2018-09-08T05:41:48.523Z,45.33
2018-09-08T05:44:17.164Z,51.40
2018-09-08T05:46:46.026Z,52.90
2018-09-08T05:49:14.768Z,53.97
2018-09-08T05:51:43.486Z,49.37
2018-09-08T05:54:12.088Z,48.27
2018-09-08T05:56:40.777Z,48.37
2018-09-08T05:59:09.406Z,45.27
2018-09-08T06:01:38.079Z,40.87
2018-09-08T06:04:06.971Z,39.63
2018-09-08T06:06:36.180Z,38.73
2018-09-08T06:09:05.925Z,37.07
2018-09-08T06:11:34.563Z,36.27
2018-09-08T06:14:03.417Z,34.77
2018-09-08T06:16:32.052Z,32.23
2018-09-08T06:19:00.702Z,31.30
2018-09-08T06:21:29.289Z,30.90
2018-09-08T06:23:57.953Z,29.37
2018-09-08T06:26:26.709Z,29.20
2018-09-08T06:28:55.359Z,27.93
2018-09-08T06:31:23.992Z,28.37
2018-09-08T06:33:52.629Z,28.20
2018-09-08T06:36:21.417Z,26.20
2018-09-08T06:38:50.047Z,25.37
2018-09-08T06:41:18.797Z,23.27
2018-09-08T06:43:47.511Z,24.53
2018-09-08T06:46:15.119Z,22.27
2018-09-08T06:48:43.860Z,23.83
2018-09-08T06:51:12.488Z,23.70
2018-09-08T06:53:41.206Z,24.13
2018-09-08T06:56:09.873Z,24.90
2018-09-08T06:58:38.535Z,24.10
2018-09-08T07:01:07.423Z,26.93
2018-09-08T07:03:36.481Z,24.50
2018-09-08T07:06:05.221Z,24.23
2018-09-08T07:08:33.940Z,22.47
2018-09-08T07:11:02.550Z,22.63
2018-09-08T07:13:31.392Z,20.57
2018-09-08T07:16:00.028Z,21.40
2018-09-08T07:18:29.043Z,20.90
2018-09-08T07:20:57.746Z,21.67
2018-09-08T07:23:26.349Z,20.97
2018-09-08T07:25:55.155Z,22.80
2018-09-08T07:28:23.978Z,23.60
2018-09-08T07:30:53.129Z,23.73
2018-09-08T07:33:22.160Z,21.80
2018-09-08T07:35:50.814Z,24.27
2018-09-08T07:38:19.550Z,22.80
2018-09-08T07:40:48.528Z,24.43
2018-09-08T07:43:17.313Z,23.50
2018-09-08T07:45:46.012Z,23.57
2018-09-08T07:48:14.637Z,24.03
2018-09-08T07:50:43.507Z,25.67
2018-09-08T07:53:12.419Z,22.70
2018-09-08T07:55:41.315Z,22.83
2018-09-08T07:58:10.020Z,23.00
2018-09-08T08:00:38.785Z,22.60
2018-09-08T08:03:07.378Z,22.17
2018-09-08T08:05:36.044Z,22.30
2018-09-08T08:08:04.845Z,21.10
2018-09-08T08:10:33.479Z,21.13
2018-09-08T08:13:02.204Z,24.20
2018-09-08T08:15:30.933Z,21.23
2018-09-08T08:17:59.562Z,20.37
2018-09-08T08:20:28.164Z,20.93
2018-09-08T08:22:56.777Z,19.70
2018-09-08T08:25:25.422Z,20.63
2018-09-08T08:27:54.043Z,20.00
2018-09-08T08:30:22.633Z,18.73
2018-09-08T08:32:51.228Z,19.60
2018-09-08T08:35:19.870Z,17.90
2018-09-08T08:37:48.504Z,17.50
2018-09-08T08:40:17.701Z,16.25
2018-09-08T08:42:46.881Z,24.32
2018-09-08T08:45:16.107Z,22.58
2018-09-08T08:47:45.516Z,14.63
2018-09-08T08:51:29.861Z,14.28
2018-09-08T08:54:10.280Z,14.40
2018-09-08T08:56:39.488Z,14.03
2018-09-08T08:59:08.712Z,13.15
2018-09-08T09:01:37.892Z,14.55
2018-09-08T09:04:07.393Z,13.72
2018-09-08T09:06:36.974Z,11.80
2018-09-08T09:09:10.631Z,12.65
2018-09-08T09:11:40.156Z,12.58
2018-09-08T09:14:09.568Z,12.95
2018-09-08T09:16:39.013Z,13.22
2018-09-08T09:19:40.186Z,13.70
2018-09-08T09:22:22.782Z,13.28
2018-09-08T09:25:00.696Z,13.20
2018-09-08T09:27:31.328Z,13.25
2018-09-08T09:30:00.893Z,13.08
2018-09-08T09:32:30.324Z,13.18
2018-09-08T09:34:59.516Z,13.38
2018-09-08T09:37:29.238Z,12.65
2018-09-08T09:39:59.416Z,11.05
2018-09-08T09:42:28.709Z,9.73
2018-09-08T09:44:57.959Z,10.53
2018-09-08T09:47:27.180Z,11.60
2018-09-08T09:49:56.370Z,11.10
2018-09-08T09:52:25.607Z,11.08
2018-09-08T09:54:54.829Z,8.98
2018-09-08T09:57:23.980Z,7.85
2018-09-08T09:59:53.161Z,9.35
2018-09-08T10:04:51.344Z,9.38
2018-09-08T10:07:20.765Z,8.53
2018-09-08T10:09:49.933Z,9.48
2018-09-08T10:12:19.181Z,6.45
2018-09-08T10:14:48.449Z,7.12
2018-09-08T10:17:17.664Z,8.65
2018-09-08T10:19:46.860Z,8.05
2018-09-08T10:22:16.164Z,7.83
2018-09-08T10:24:45.324Z,6.90
2018-09-08T10:27:14.495Z,6.08
2018-09-08T10:29:43.674Z,6.17
2018-09-08T10:32:13.214Z,6.55
2018-09-08T10:34:42.389Z,6.53
2018-09-08T10:37:11.922Z,6.42
2018-09-08T10:39:41.188Z,7.58
2018-09-08T10:42:10.496Z,8.90
2018-09-08T10:44:40.195Z,8.63
2018-09-08T10:47:09.915Z,7.25
2018-09-08T10:49:39.194Z,8.23
2018-09-08T10:52:19.427Z,8.25
2018-09-08T10:54:48.865Z,7.85
2018-09-08T10:57:18.680Z,6.60
2018-09-08T10:59:48.249Z,6.87
2018-09-08T11:02:17.643Z,7.72
2018-09-08T11:04:46.779Z,6.58
2018-09-08T11:07:16.593Z,5.80
2018-09-08T11:09:45.897Z,5.40
2018-09-08T11:12:15.089Z,6.37
2018-09-08T11:14:44.297Z,5.35
2018-09-08T11:17:13.602Z,5.35
2018-09-08T11:19:42.804Z,6.58
2018-09-08T11:22:12.087Z,5.87
2018-09-08T11:24:41.320Z,5.22
2018-09-08T11:27:11.353Z,4.85
2018-09-08T11:29:40.523Z,5.85
2018-09-08T11:32:09.697Z,5.87
2018-09-08T11:34:38.986Z,7.15
2018-09-08T11:37:08.180Z,5.03
2018-09-08T11:39:37.553Z,5.85
2018-09-08T11:42:07.116Z,15.50
2018-09-08T11:44:36.363Z,7.53
2018-09-08T11:47:05.734Z,5.92
2018-09-08T11:49:34.984Z,5.55
2018-09-08T11:52:04.387Z,5.85
2018-09-08T11:54:33.593Z,5.65
2018-09-08T11:57:02.787Z,8.63
2018-09-08T11:59:32.090Z,6.12
2018-09-08T12:02:01.616Z,5.08
2018-09-08T12:04:30.929Z,5.55
2018-09-08T12:07:00.102Z,6.10
2018-09-08T12:09:29.255Z,4.80
2018-09-08T12:11:58.742Z,4.95
2018-09-08T12:14:27.925Z,4.70
2018-09-08T12:16:57.104Z,8.60
2018-09-08T12:19:26.275Z,4.78
2018-09-08T12:21:55.476Z,4.47
2018-09-08T12:24:24.850Z,4.53
2018-09-08T12:26:54.028Z,4.50
2018-09-08T12:29:23.222Z,5.15
2018-09-08T12:31:52.372Z,5.95
2018-09-08T12:34:21.552Z,5.80
2018-09-08T12:36:50.767Z,7.50
2018-09-08T12:39:19.952Z,5.87
2018-09-08T12:41:49.125Z,5.40
2018-09-08T12:44:18.278Z,4.00
2018-09-08T12:46:47.433Z,4.17
2018-09-08T12:49:16.634Z,3.80
2018-09-08T12:51:45.808Z,4.28
2018-09-08T12:54:14.946Z,4.20
2018-09-08T12:56:44.124Z,4.85
2018-09-08T12:59:13.379Z,5.90
2018-09-08T13:01:42.720Z,4.62
2018-09-08T13:04:11.910Z,3.98
2018-09-08T13:06:41.078Z,3.67
2018-09-08T13:09:10.253Z,7.60
2018-09-08T13:11:39.416Z,4.08
2018-09-08T13:14:08.635Z,4.40
2018-09-08T13:16:37.784Z,4.12
2018-09-08T13:19:06.940Z,3.85
2018-09-08T13:21:36.096Z,3.60
2018-09-08T13:24:05.373Z,4.30
2018-09-08T13:26:34.697Z,4.40
2018-09-08T13:29:03.861Z,4.28
2018-09-08T13:31:33.013Z,4.72
2018-09-08T13:34:02.170Z,4.30
2018-09-08T13:39:07.785Z,5.08
2018-09-08T13:41:36.943Z,4.30
2018-09-08T13:44:06.496Z,4.80
2018-09-08T13:46:35.764Z,3.70
2018-09-08T13:49:04.940Z,3.60
2018-09-08T13:51:34.142Z,3.47
2018-09-08T13:54:03.309Z,4.05
2018-09-08T13:56:32.508Z,4.22
2018-09-08T13:59:01.708Z,3.85
2018-09-08T14:01:30.868Z,4.65
2018-09-08T14:04:00.083Z,4.10
2018-09-08T14:06:29.240Z,3.70
2018-09-08T14:08:58.437Z,4.35
2018-09-08T14:11:27.613Z,4.10
2018-09-08T14:13:56.785Z,4.35
2018-09-08T14:16:26.032Z,3.80
2018-09-08T14:18:55.867Z,3.90
2018-09-08T14:21:25.040Z,4.45
2018-09-08T14:23:54.218Z,3.95
2018-09-08T14:26:23.437Z,4.17
2018-09-08T14:28:52.628Z,3.90
2018-09-08T14:31:21.797Z,4.15
2018-09-08T14:33:50.966Z,4.35
2018-09-08T14:36:20.146Z,5.00
2018-09-08T14:38:49.355Z,4.10
2018-09-08T14:41:18.777Z,4.03
2018-09-08T14:43:47.936Z,4.05
2018-09-08T14:46:17.081Z,5.37
2018-09-08T14:48:46.321Z,3.90
2018-09-08T14:51:15.517Z,8.08
2018-09-08T14:53:44.684Z,4.05
2018-09-08T14:56:13.944Z,4.85
2018-09-08T14:58:43.192Z,3.90
2018-09-08T15:01:13.155Z,3.85
2018-09-08T15:03:43.156Z,3.95
2018-09-08T15:06:12.375Z,6.30
2018-09-08T15:08:41.537Z,4.00
2018-09-08T15:11:10.841Z,3.85
2018-09-08T15:13:40.072Z,4.30
2018-09-08T15:16:09.468Z,5.03
2018-09-08T15:18:38.648Z,4.67
2018-09-08T15:21:07.984Z,4.58
2018-09-08T15:23:37.270Z,3.95
2018-09-08T15:26:06.816Z,5.85
2018-09-08T15:28:36.198Z,4.90
2018-09-08T15:31:05.398Z,4.00
2018-09-08T15:33:34.586Z,4.33
2018-09-08T15:36:03.784Z,3.98
2018-09-08T15:38:33.132Z,3.80
2018-09-08T15:41:02.463Z,3.98
2018-09-08T15:43:31.861Z,3.67
2018-09-08T15:46:01.248Z,4.72
2018-09-08T15:48:30.606Z,3.77
2018-09-08T15:51:00.054Z,3.67
2018-09-08T15:53:29.240Z,4.05
2018-09-08T15:55:58.463Z,4.28
2018-09-08T15:58:27.809Z,3.95
2018-09-08T16:00:57.255Z,3.67
2018-09-08T16:03:26.456Z,4.53
2018-09-08T16:05:55.629Z,4.10
2018-09-08T16:08:24.862Z,5.00
2018-09-08T16:10:54.100Z,3.55
2018-09-08T16:13:23.959Z,3.33
2018-09-08T16:15:53.177Z,3.62
2018-09-08T16:18:22.378Z,3.92
2018-09-08T16:20:51.605Z,4.20
2018-09-08T16:23:20.772Z,4.08
2018-09-08T16:25:50.269Z,3.27
2018-09-08T16:28:19.117Z,3.63
2018-09-08T16:30:48.357Z,4.05
2018-09-08T16:33:17.521Z,3.95
2018-09-08T16:35:46.804Z,3.95
2018-09-08T16:38:15.963Z,4.75
2018-09-08T16:40:45.181Z,4.85
2018-09-08T16:43:13.921Z,5.33
2018-09-08T16:45:43.079Z,6.90
2018-09-08T16:48:11.697Z,5.33
2018-09-08T16:50:40.893Z,7.67
2018-09-08T16:53:09.641Z,6.10
2018-09-08T16:55:38.340Z,4.73
2018-09-08T16:58:06.956Z,12.37
2018-09-08T17:00:36.419Z,18.27
2018-09-08T17:03:05.172Z,9.30
2018-09-08T17:05:33.925Z,8.93
2018-09-08T17:08:03.079Z,7.63
2018-09-08T17:10:31.689Z,11.27
2018-09-08T17:13:00.363Z,10.47
2018-09-08T17:15:29.557Z,8.10
2018-09-08T17:17:58.208Z,8.60
2018-09-08T17:20:26.838Z,7.40
2018-09-08T17:22:55.462Z,7.93
2018-09-08T17:25:24.247Z,8.43
2018-09-08T17:27:53.037Z,11.93
2018-09-08T17:30:21.688Z,15.43
2018-09-08T17:32:50.528Z,12.30
2018-09-08T17:35:19.148Z,13.53
2018-09-08T17:37:48.404Z,18.47
2018-09-08T17:40:17.010Z,17.37
2018-09-08T17:42:45.662Z,21.97
2018-09-08T17:45:14.272Z,20.50
2018-09-08T17:47:42.849Z,22.87
2018-09-08T17:50:11.536Z,18.60
2018-09-08T17:52:40.381Z,16.33
2018-09-08T17:55:09.067Z,16.10
2018-09-08T17:57:37.746Z,13.67
2018-09-08T18:00:06.723Z,12.40
2018-09-08T18:02:35.389Z,15.60
2018-09-08T18:05:03.995Z,13.73
2018-09-08T18:07:32.708Z,16.73
2018-09-08T18:10:01.510Z,13.87
2018-09-08T18:12:30.230Z,12.77
2018-09-08T18:14:58.968Z,12.13
2018-09-08T18:17:27.797Z,13.80
2018-09-08T18:19:56.766Z,13.90
2018-09-08T18:22:25.452Z,11.10
2018-09-08T18:24:54.049Z,10.70
2018-09-08T18:27:22.686Z,12.87
2018-09-08T18:29:51.416Z,12.67
2018-09-08T18:32:20.061Z,11.97
2018-09-08T18:34:48.815Z,15.00
2018-09-08T18:37:17.428Z,16.77
2018-09-08T18:39:46.057Z,17.73
2018-09-08T18:42:14.662Z,20.27
2018-09-08T18:44:43.705Z,22.67
2018-09-08T18:47:12.322Z,15.27
2018-09-08T18:49:41.668Z,16.53
2018-09-08T18:52:11.147Z,13.47
2018-09-08T18:54:39.849Z,20.93
2018-09-08T18:57:08.810Z,30.37
2018-09-08T18:59:37.588Z,37.07
2018-09-08T19:02:06.296Z,37.00
2018-09-08T19:04:34.922Z,39.50
2018-09-08T19:07:03.593Z,26.77
2018-09-08T19:09:32.328Z,24.33
2018-09-08T19:12:01.020Z,27.43
2018-09-08T19:14:34.919Z,24.63
2018-09-08T19:17:03.650Z,26.20
2018-09-08T19:19:32.316Z,25.93
2018-09-08T19:22:00.901Z,21.60
2018-09-08T19:24:34.827Z,22.00
2018-09-08T19:27:03.498Z,22.53
2018-09-08T19:29:37.372Z,23.07
2018-09-08T19:32:06.056Z,28.97
2018-09-08T19:34:34.872Z,31.43
2018-09-08T19:37:03.464Z,27.00
2018-09-08T19:39:32.090Z,22.53
2018-09-08T19:42:00.685Z,20.13
2018-09-08T19:44:29.371Z,23.07
2018-09-08T19:47:03.184Z,23.70
2018-09-08T19:49:31.827Z,21.50
2018-09-08T19:52:00.749Z,21.87
2018-09-08T19:54:30.124Z,20.87
2018-09-08T19:57:03.944Z,19.40
2018-09-08T19:59:33.238Z,18.73
2018-09-08T20:02:02.050Z,20.33
2018-09-08T20:04:30.986Z,23.63
2018-09-08T20:06:59.602Z,20.47
2018-09-08T20:09:28.430Z,18.57
2018-09-08T20:11:57.312Z,21.80
2018-09-08T20:14:25.976Z,16.33
2018-09-08T20:16:54.705Z,17.67
2018-09-08T20:19:23.443Z,20.63
2018-09-08T20:21:52.090Z,18.40
2018-09-08T20:24:20.877Z,19.57
2018-09-08T20:26:49.703Z,19.37
2018-09-08T20:29:18.493Z,23.00
2018-09-08T20:31:47.162Z,18.90
2018-09-08T20:34:15.768Z,22.23
2018-09-08T20:36:44.428Z,18.07
2018-09-08T20:39:13.041Z,20.33
2018-09-08T20:41:41.827Z,22.07
2018-09-08T20:44:10.512Z,19.17
2018-09-08T20:46:39.201Z,23.83
2018-09-08T20:49:07.884Z,19.90
2018-09-08T20:51:36.652Z,17.10
2018-09-08T20:54:05.310Z,18.00
2018-09-08T20:56:33.920Z,14.00
2018-09-08T20:59:03.272Z,14.80
2018-09-08T21:01:31.943Z,17.90
2018-09-08T21:04:00.864Z,15.57
2018-09-08T21:06:29.685Z,18.83
2018-09-08T21:08:58.356Z,16.23
2018-09-08T21:11:27.541Z,15.90
2018-09-08T21:13:56.161Z,19.93
2018-09-08T21:16:24.826Z,16.40
2018-09-08T21:18:53.556Z,17.60
2018-09-08T21:21:22.197Z,14.80
2018-09-08T21:23:50.832Z,16.07
2018-09-08T21:26:19.420Z,15.30
2018-09-08T21:28:48.137Z,17.07
2018-09-08T21:31:16.892Z,17.00
2018-09-08T21:33:45.597Z,17.93
2018-09-08T21:36:14.232Z,18.40
2018-09-08T21:38:42.924Z,17.13
2018-09-08T21:41:11.681Z,15.87
2018-09-08T21:43:40.340Z,15.50
2018-09-08T21:46:08.928Z,16.53
2018-09-08T21:48:38.481Z,16.47
2018-09-08T21:51:07.157Z,15.20
2018-09-08T21:53:37.093Z,17.43
2018-09-08T21:56:06.025Z,14.23
2018-09-08T21:58:35.130Z,17.20
2018-09-08T22:01:39.706Z,18.23
2018-09-08T22:04:08.351Z,17.70
2018-09-08T22:06:37.022Z,13.90
2018-09-08T22:09:08.523Z,13.83
2018-09-08T22:11:37.387Z,13.47
2018-09-08T22:14:06.044Z,17.70
2018-09-08T22:16:34.763Z,15.97
2018-09-08T22:19:04.041Z,16.77
2018-09-08T22:21:32.686Z,13.93
2018-09-08T22:24:01.461Z,14.50
2018-09-08T22:26:30.632Z,14.53
2018-09-08T22:28:59.228Z,17.60
2018-09-08T22:31:27.854Z,16.87
2018-09-08T22:33:56.742Z,14.00
2018-09-08T22:36:25.528Z,15.30
2018-09-08T22:38:54.443Z,12.80
2018-09-08T22:41:23.305Z,13.80
2018-09-08T22:43:52.002Z,12.97
2018-09-08T22:46:20.955Z,12.00
2018-09-08T22:48:49.819Z,12.13
2018-09-08T22:51:18.449Z,13.23
2018-09-08T22:53:47.154Z,12.90
2018-09-08T22:56:15.790Z,13.33
2018-09-08T22:58:44.539Z,11.60
2018-09-08T23:01:13.229Z,14.57
2018-09-08T23:03:41.872Z,11.07
2018-09-08T23:06:11.117Z,14.30
2018-09-08T23:08:39.708Z,13.70
2018-09-08T23:11:08.465Z,12.33
2018-09-08T23:13:37.768Z,11.80
2018-09-08T23:16:06.720Z,10.63
2018-09-08T23:18:35.320Z,12.37
2018-09-08T23:21:04.052Z,9.20
2018-09-08T23:23:32.716Z,12.20
2018-09-08T23:26:01.398Z,11.97
2018-09-08T23:28:30.575Z,10.37
2018-09-08T23:30:59.257Z,11.13
2018-09-08T23:33:27.882Z,12.77
2018-09-08T23:35:56.540Z,13.60
2018-09-08T23:38:25.128Z,12.00
2018-09-08T23:40:53.839Z,15.40
2018-09-08T23:43:22.561Z,12.70
2018-09-08T23:45:51.345Z,10.67
2018-09-08T23:48:20.124Z,10.93
2018-09-08T23:50:48.729Z,9.27
2018-09-08T23:53:17.428Z,8.97
2018-09-08T23:55:46.024Z,8.90
2018-09-08T23:58:14.619Z,8.87
